Latest Weather Observations for Urandangi

IDQ60801

Issued at 3:32 pm EST Sunday 29 May 2016 (issued every 30 minutes, with the page automatically refreshed every 10 minutes)

About weather observations | Map of weather stations | Latest weather observations for QLD | Other Formats
Station Details ID: 037058 Name: URANDANGI AERODROME Lat: -21.60 Lon: 138.37 Height: 178.6 m
Data from the previous 72 hours. | See also: Recent months at Urandangi
Date/Time
EST
Temp
°C
App
Temp
°C
Dew
Point
Rel
Hum
%
Delta-T
°C
Wind Press
QNH
hPa
Press
MSL
hPa
Rain
since 9 am
mm
Dir
 
Spd
km/h
Gust
km/h
Spd
kts
Gust
kts
29/03:30pm 27.9 24.9 4.2 22 12.1 ESE 9 19 5 10 1016.3 1015.8 0.0
29/03:00pm 27.9 24.5 4.2 22 12.1 SSE 11 22 6 12 1016.4 1015.9 0.0
29/02:30pm 27.0 23.6 4.1 23 11.6 SE 11 17 6 9 1016.6 1016.1 0.0
29/02:00pm 26.8 23.4 4.0 23 11.5 SSE 11 20 6 11 1016.9 1016.4 0.0
29/01:30pm 26.6 23.7 4.4 24 11.3 E 9 17 5 9 1017.2 1016.7 0.0
29/01:00pm 25.9 23.0 4.4 25 10.9 SE 9 17 5 9 1017.7 1017.2 0.0
29/12:30pm 25.4 21.7 4.5 26 10.6 ESE 13 19 7 10 1018.1 1017.5 0.0
29/12:00pm 24.9 21.2 4.6 27 10.2 ESE 13 20 7 11 1018.7 1018.2 0.0
29/11:30am 23.7 19.6 4.6 29 9.6 SE 15 22 8 12 1019.3 1018.8 0.0
29/11:00am 23.0 18.6 5.0 31 9.0 SE 17 26 9 14 1019.6 1019.1 0.0
29/10:30am 21.5 16.7 4.6 33 8.3 ESE 19 24 10 13 1019.9 1019.4 0.0
29/10:00am 20.5 15.7 4.5 35 7.8 ESE 19 24 10 13 1019.9 1019.4 0.0
29/09:30am 19.4 14.6 4.7 38 7.2 ESE 19 24 10 13 1019.7 1019.2 0.0
29/09:00am 17.9 14.3 4.8 42 6.3 ESE 13 20 7 11 1019.5 1019.0 0.0
29/08:30am 15.4 12.0 4.2 47 5.2 SE 11 17 6 9 1019.3 1018.8 0.0
29/08:00am 12.7 10.0 3.9 55 4.0 SE 7 9 4 5 1019.1 1018.6 0.0
29/07:30am 10.5 7.8 2.4 57 3.5 SE 6 7 3 4 1018.9 1018.4 0.0
29/07:00am 10.4 7.4 2.0 56 3.6 SE 7 7 4 4 1018.6 1018.1 0.0
29/06:30am 11.6 8.9 2.6 54 3.9 SE 6 6 3 3 1018.3 1017.7 0.0
29/06:00am 11.6 8.9 2.4 53 4.0 SE 6 6 3 3 1018.1 1017.5 0.0
29/05:30am 11.9 8.6 2.6 53 4.1 SE 9 11 5 6 1018.1 1017.5 0.0
29/05:00am 11.8 8.9 1.7 50 4.3 SE 6 6 3 3 1017.9 1017.3 0.0
29/04:30am 12.8 9.9 2.6 50 4.5 SSE 7 9 4 5 1017.7 1017.2 0.0
29/04:00am 13.2 10.4 1.8 46 5.0 ESE 6 7 3 4 1017.7 1017.2 0.0
29/03:30am 14.6 11.4 2.8 45 5.3 SSE 9 9 5 5 1017.6 1017.1 0.0
29/03:00am 14.6 11.6 2.2 43 5.5 SSE 7 9 4 5 1017.5 1017.0 0.0
29/02:30am 15.3 12.4 2.5 42 5.8 SSE 7 7 4 4 1017.6 1017.1 0.0
29/02:00am 14.8 11.9 2.4 43 5.5 SSE 7 9 4 5 1017.5 1017.0 0.0
29/01:30am 15.1 11.8 2.3 42 5.7 SSE 9 11 5 6 1017.6 1017.1 0.0
29/01:00am 15.2 11.9 2.7 43 5.6 SSE 9 13 5 7 1017.7 1017.2 0.0
29/12:30am 14.5 11.6 2.4 44 5.4 SSE 7 9 4 5 1017.9 1017.3 0.0
29/12:00am 15.3 12.4 2.5 42 5.8 SSE 7 9 4 5 1017.9 1017.3 0.0
 
Date/Time
EST
Temp
°C
App
Temp
°C
Dew
Point
Rel
Hum
%
Delta-T
°C
Wind Press
QNH
hPa
Press
MSL
hPa
Rain
since 9 am
mm
Dir
 
Spd
km/h
Gust
km/h
Spd
kts
Gust
kts
28/11:30pm 16.0 12.8 2.8 41 6.0 SE 9 11 5 6 1018.1 1017.5 0.0
28/11:00pm 16.2 13.0 2.9 41 6.1 SSE 9 11 5 6 1018.1 1017.5 0.0
28/10:30pm 15.4 12.2 3.2 44 5.6 SE 9 9 5 5 1018.3 1017.7 0.0
28/10:00pm 16.2 13.7 3.6 43 5.8 SSE 6 7 3 4 1018.2 1017.6 0.0
28/09:30pm 16.2 13.5 3.9 44 5.8 SSE 7 7 4 4 1018.3 1017.7 0.0
28/09:00pm 16.8 14.3 4.5 44 5.8 SSE 7 7 4 4 1018.2 1017.6 0.0
28/08:30pm 17.0 14.3 3.7 41 6.2 SSE 7 9 4 5 1018.1 1017.5 0.0
28/08:00pm 18.4 15.7 3.8 38 6.9 SE 7 7 4 4 1017.4 1016.9 0.0
28/07:30pm 19.3 16.3 3.9 36 7.4 S 9 11 5 6 1017.7 1017.2 0.0
28/07:00pm 19.9 17.2 3.6 34 7.8 SE 7 9 4 5 1016.9 1016.4 0.0
28/06:30pm 21.7 18.7 3.9 31 8.7 SE 9 13 5 7 1016.5 1016.0 0.0
28/06:00pm 23.6 19.9 4.5 29 9.5 SE 13 19 7 10 1016.4 1015.9 0.0
28/05:30pm 24.2 20.9 4.6 28 9.8 ESE 11 15 6 8 1016.1 1015.6 0.0
28/05:00pm 24.6 20.9 4.4 27 10.1 SE 13 20 7 11 1015.9 1015.4 0.0
28/04:30pm 25.1 21.5 4.8 27 10.3 ESE 13 19 7 10 1015.9 1015.4 0.0
28/04:00pm 25.0 20.7 5.2 28 10.1 SSE 17 24 9 13 1016.1 1015.6 0.0
28/03:30pm 25.3 21.8 5.5 28 10.2 SE 13 20 7 11 1016.3 1015.8 0.0
28/03:00pm 24.4 21.1 4.7 28 9.9 SE 11 24 6 13 1016.5 1016.0 0.0
28/02:30pm 24.6 21.1 5.4 29 9.8 SE 13 20 7 11 1016.7 1016.2 0.0
28/02:00pm 24.1 20.3 5.9 31 9.3 ESE 15 24 8 13 1017.3 1016.8 0.0
28/01:30pm 23.6 19.9 6.4 33 8.9 ESE 15 24 8 13 1018.0 1017.4 0.0
28/01:00pm 23.5 19.6 7.2 35 8.5 ESE 17 26 9 14 1018.8 1018.3 0.0
28/12:30pm 22.7 18.8 6.9 36 8.2 SE 17 30 9 16 1019.5 1019.0 0.0
28/12:00pm 22.3 18.2 7.7 39 7.7 SE 19 26 10 14 1020.0 1019.5 0.0
28/11:30am 21.6 17.6 8.1 42 7.1 SE 19 30 10 16 1020.4 1019.9 0.0
28/11:00am 20.9 16.6 7.9 43 6.8 ESE 20 28 11 15 1020.7 1020.2 0.0
28/10:30am 20.4 15.9 8.4 46 6.3 SE 22 32 12 17 1021.0 1020.5 0.0
28/10:00am 19.2 14.2 7.9 48 5.8 SE 24 32 13 17 1021.1 1020.6 0.0
28/09:30am 18.2 13.8 7.3 49 5.5 SE 20 28 11 15 1021.0 1020.5 0.0
28/09:00am 17.2 13.0 7.5 53 4.9 SE 19 24 10 13 1020.9 1020.4 0.0
28/08:30am 15.4 12.3 7.2 58 4.1 SE 13 19 7 10 1020.5 1020.0 0.0
28/08:00am 12.7 10.8 6.5 66 3.0 SE 6 9 3 5 1020.2 1019.7 0.0
28/07:30am 10.9 8.3 5.9 71 2.3 SE 9 9 5 5 1019.7 1019.2 0.0
28/07:00am 10.6 8.2 5.4 70 2.4 ESE 7 7 4 4 1019.4 1018.9 0.0
28/06:30am 11.3 9.0 5.8 69 2.6 SE 7 7 4 4 1019.0 1018.5 0.0
28/06:00am 11.9 9.3 6.2 68 2.7 SE 9 9 5 5 1018.8 1018.3 0.0
28/05:30am 12.3 10.1 6.1 66 2.9 SE 7 9 4 5 1018.7 1018.2 0.0
28/05:00am 13.2 10.6 6.3 63 3.3 SE 9 9 5 5 1018.3 1017.7 0.0
28/04:30am 14.1 11.2 6.7 61 3.6 SSE 11 13 6 7 1018.2 1017.6 0.0
28/04:00am 13.4 11.3 6.5 63 3.3 SE 7 9 4 5 1018.1 1017.5 0.0
28/03:30am 13.5 10.6 6.4 62 3.4 SSE 11 13 6 7 1018.0 1017.4 0.0
28/03:00am 13.7 11.1 6.1 60 3.6 SSE 9 9 5 5 1018.1 1017.5 0.0
28/02:30am 14.8 12.2 6.1 56 4.2 SSE 9 11 5 6 1018.2 1017.6 0.0
28/02:00am 16.1 13.2 6.3 52 4.8 SSE 11 17 6 9 1018.1 1017.5 0.0
28/01:30am 16.8 13.5 6.3 50 5.2 SSE 13 17 7 9 1018.1 1017.5 0.0
28/01:00am 17.3 13.9 5.9 47 5.6 SSE 13 19 7 10 1018.2 1017.6 0.0
28/12:30am 18.0 14.2 5.9 45 6.0 SSE 15 20 8 11 1018.3 1017.7 0.0
28/12:00am 18.7 13.5 5.5 42 6.5 SSE 22 30 12 16 1018.4 1017.8 0.0
 
Date/Time
EST
Temp
°C
App
Temp
°C
Dew
Point
Rel
Hum
%
Delta-T
°C
Wind Press
QNH
hPa
Press
MSL
hPa
Rain
since 9 am
mm
Dir
 
Spd
km/h
Gust
km/h
Spd
kts
Gust
kts
27/11:30pm 19.4 14.2 5.5 40 6.9 SSE 22 32 12 17 1018.4 1017.8 0.0
27/11:00pm 19.8 15.5 6.9 43 6.6 SSE 19 28 10 15 1018.3 1017.7 0.0
27/10:30pm 20.3 16.2 8.0 45 6.4 SSE 19 26 10 14 1018.3 1017.7 0.0
27/10:00pm 20.4 16.8 8.4 46 6.3 SSE 17 22 9 12 1018.3 1017.7 0.0
27/09:30pm 20.9 17.4 8.9 46 6.4 SSE 17 22 9 12 1018.1 1017.5 0.0
27/09:00pm 21.3 17.8 8.9 45 6.6 SSE 17 22 9 12 1017.9 1017.3 0.0
27/08:30pm 21.7 18.2 8.9 44 6.9 SSE 17 24 9 13 1017.7 1017.2 0.0
27/08:00pm 22.4 18.1 9.2 43 7.1 SSE 22 30 12 16 1017.2 1016.7 0.0
27/07:30pm 23.0 18.3 9.4 42 7.4 SSE 24 35 13 19 1016.7 1016.2 0.0
27/07:00pm 23.9 20.0 10.9 44 7.3 SSE 22 32 12 17 1016.2 1015.7 0.0
27/06:30pm 24.2 20.9 11.5 45 7.2 SSE 20 32 11 17 1015.8 1015.3 0.0
27/06:00pm 24.9 20.8 11.5 43 7.6 SSE 24 35 13 19 1015.5 1015.0 0.0
27/05:30pm 25.6 21.0 11.0 40 8.3 SSE 26 35 14 19 1015.2 1014.7 0.0
27/05:00pm 26.5 22.3 11.0 38 8.8 SSE 24 37 13 20 1014.8 1014.3 0.0
27/04:30pm 26.8 22.2 10.9 37 9.1 SSE 26 35 14 19 1014.9 1014.4 0.0
27/04:00pm 27.4 22.7 10.6 35 9.5 SSE 26 39 14 21 1014.8 1014.3 0.0
27/03:30pm 27.7 23.1 10.9 35 9.6 SSE 26 37 14 20 1014.7 1014.2 0.0
27/03:00pm 27.9 23.7 11.0 35 9.7 S 24 33 13 18 1014.7 1014.2 0.0
27/02:30pm 28.2 23.7 11.3 35 9.7 SSE 26 37 14 20 1014.7 1014.2 0.0
27/02:00pm 28.2 23.2 12.1 37 9.4 SSE 30 37 16 20 1014.7 1014.2 0.0
27/01:30pm 28.6 24.6 12.9 38 9.3 SSE 26 35 14 19 1014.9 1014.4 0.0
27/01:00pm 28.7 25.1 13.0 38 9.3 SSE 24 35 13 19 1015.1 1014.6 0.0
27/12:30pm 29.1 26.0 13.3 37 9.4 SSE 22 30 12 16 1015.5 1015.0 0.0
27/12:00pm 28.8 26.0 12.7 37 9.5 SSE 19 26 10 14 1015.7 1015.2 0.0
27/11:30am 28.8 25.8 12.7 37 9.5 SSE 20 26 11 14 1015.9 1015.4 0.0
27/11:00am 28.3 25.3 11.8 36 9.6 S 19 24 10 13 1016.2 1015.7 0.0
27/10:30am 27.9 24.3 11.9 37 9.3 SSW 22 28 12 15 1016.0 1015.5 0.0
27/10:00am 28.4 27.8 12.3 37 9.4 WSW 7 13 4 7 1016.0 1015.5 0.0
27/09:30am 26.8 26.0 11.7 39 8.7 WSW 7 11 4 6 1015.8 1015.3 0.0
27/09:00am 25.5 24.9 11.7 42 7.9 W 6 9 3 5 1015.5 1015.0 0.0
27/08:30am 24.1 24.8 12.1 47 6.9 CALM 0 0 0 0 1015.2 1014.7 0.0
27/08:00am 20.4 20.8 11.3 56 5.1 CALM 0 0 0 0 1015.1 1014.6 0.0
27/07:30am 17.7 17.8 10.1 61 4.1 CALM 0 0 0 0 1014.5 1014.0 0.0
27/07:00am 16.9 16.5 9.8 63 3.8 ESE 2 6 1 3 1014.3 1013.8 0.0
27/06:30am 17.7 17.7 9.8 60 4.2 CALM 0 6 0 3 1013.8 1013.3 0.0
27/06:00am 18.2 16.9 9.8 58 4.5 SSW 7 15 4 8 1013.3 1012.7 0.0
27/05:30am 20.3 18.8 10.7 54 5.3 NNW 9 11 5 6 1012.8 1012.2 0.0
27/05:00am 20.9 19.1 10.7 52 5.6 N 11 15 6 8 1012.4 1011.8 0.0
27/04:30am 20.0 18.5 10.4 54 5.2 N 9 11 5 6 1012.6 1012.0 0.0
27/04:00am 20.0 19.0 10.4 54 5.2 N 6 7 3 4 1012.6 1012.0 0.0
27/03:30am 20.5 18.6 10.6 53 5.4 N 11 13 6 7 1012.5 1011.9 0.0
27/03:00am 20.1 18.5 10.2 53 5.4 N 9 9 5 5 1012.6 1012.0 0.0
27/02:30am 20.0 18.9 9.9 52 5.5 N 6 7 3 4 1012.7 1012.1 0.0
27/02:00am 20.6 19.5 10.1 51 5.7 NNW 6 7 3 4 1012.9 1012.3 0.0
27/01:30am 20.6 19.4 9.5 49 6.0 NNW 6 6 3 3 1013.2 1012.6 0.0
27/01:00am 20.9 19.8 9.8 49 6.0 NNW 6 6 3 3 1013.2 1012.6 0.0
27/12:30am 21.6 20.5 9.8 47 6.4 N 6 6 3 3 1013.2 1012.6 0.0
27/12:00am 22.4 21.6 11.2 49 6.3 N 6 6 3 3 1013.3 1012.7 0.0
 
Date/Time
EST
Temp
°C
App
Temp
°C
Dew
Point
Rel
Hum
%
Delta-T
°C
Wind Press
QNH
hPa
Press
MSL
hPa
Rain
since 9 am
mm
Dir
 
Spd
km/h
Gust
km/h
Spd
kts
Gust
kts
26/11:30pm 22.4 21.0 10.9 48 6.4 N 9 9 5 5 1013.5 1012.9 0.0
26/11:00pm 22.9 21.9 11.0 47 6.7 N 7 9 4 5 1013.6 1013.0 0.0
26/10:30pm 23.0 21.6 10.8 46 6.8 N 9 11 5 6 1013.6 1013.0 0.0
26/10:00pm 23.7 22.7 11.1 45 7.1 N 7 9 4 5 1013.8 1013.3 0.0
26/09:30pm 23.7 22.7 10.4 43 7.4 N 6 6 3 3 1013.9 1013.4 0.0
26/09:00pm 24.7 23.6 10.6 41 7.9 N 7 9 4 5 1013.9 1013.4 0.0
26/08:30pm 25.3 24.0 10.0 38 8.5 N 7 7 4 4 1013.8 1013.3 0.0
26/08:00pm 25.9 24.6 10.1 37 8.8 NNW 7 7 4 4 1013.5 1012.9 0.0
26/07:30pm 27.1 25.9 10.3 35 9.5 NNW 7 9 4 5 1012.9 1012.3 0.0
26/07:00pm 27.5 26.4 8.4 30 10.5 NW 4 4 2 2 1012.3 1011.7 0.0
26/06:30pm 30.1 29.0 10.1 29 11.4 NW 6 6 3 3 1011.7 1011.2 0.0
26/06:00pm 32.3 31.7 10.4 26 12.7 NW 4 6 2 3 1011.5 1011.0 0.0
26/05:30pm 33.0 31.5 10.4 25 13.1 NNW 9 13 5 7 1011.5 1011.0 0.0
26/05:00pm 33.6 31.6 10.2 24 13.6 WNW 11 17 6 9 1011.5 1011.0 0.0
26/04:30pm 34.1 33.0 10.0 23 14.0 NNW 6 13 3 7 1011.5 1011.0 0.0
26/04:00pm 33.5 32.3 10.2 24 13.5 WNW 7 13 4 7 1011.4 1010.9 0.0

Other Formats:

Comma delimited format used in spreadsheet applications
http://www.bom.gov.au/fwo/IDQ60801/IDQ60801.94344.axf

JavaScript Object Notation format (JSON) in row-major order
http://www.bom.gov.au/fwo/IDQ60801/IDQ60801.94344.json